Willow Creek, Montana
Current Conditions -  °F | °C
As of 1:56 AM on Saturday 25 Oct 2014 (Local Time) from KBZN Reporting Station
Clear Clear  
Wind Chill: 32°   Ceiling: Unl
Heat Index: 32°   Visibility: 8mi
Dew Point: 31°   Wind: 3mph
Humidity: 96%   Direction: 160°SSE
Pressure: 30.1"   Gusts: NA
Location:  45.83°N, 111.65°W
Report Text: KBZN 250756Z AUTO 16003KT 8SM CLR 00/M01 A3010 RMK AO2 SLP203 T00001006
Loading
Personal Weather Stations






























Interactive Weather Map
Tropical Storm Tracking
New forecast layout! Learn more

10-Day Weather Forecast

Advertisements
Track Severe Weather on mobile